createdAt,value
2022-10-21T00:01:56.255Z,22.63
2022-10-21T00:04:23.106Z,27.00
2022-10-21T00:06:49.916Z,23.13
2022-10-21T00:09:18.048Z,21.03
2022-10-21T00:11:44.892Z,19.87
2022-10-21T00:14:11.674Z,21.23
2022-10-21T00:16:38.533Z,24.77
2022-10-21T00:19:05.418Z,23.47
2022-10-21T00:21:32.215Z,21.67
2022-10-21T00:23:59.015Z,22.17
2022-10-21T00:26:27.169Z,23.27
2022-10-21T00:28:55.623Z,20.87
2022-10-21T00:31:23.371Z,22.73
2022-10-21T00:33:50.190Z,22.53
2022-10-21T00:36:17.102Z,22.87
2022-10-21T00:38:45.162Z,20.93
2022-10-21T00:41:12.455Z,23.97
2022-10-21T00:43:57.714Z,22.40
2022-10-21T00:46:32.793Z,20.53
2022-10-21T00:49:01.726Z,21.87
2022-10-21T00:51:28.936Z,21.00
2022-10-21T00:53:55.906Z,23.37
2022-10-21T00:56:26.705Z,23.40
2022-10-21T00:58:57.653Z,23.63
2022-10-21T01:01:24.996Z,20.57
2022-10-21T01:03:51.890Z,23.43
2022-10-21T01:06:21.732Z,20.53
2022-10-21T01:08:48.843Z,22.43
2022-10-21T01:11:18.138Z,23.27
2022-10-21T01:13:58.378Z,22.80
2022-10-21T01:16:34.361Z,25.13
2022-10-21T01:19:10.027Z,22.17
2022-10-21T01:21:41.312Z,22.50
2022-10-21T01:24:52.944Z,24.93
2022-10-21T01:27:32.981Z,26.53
2022-10-21T01:30:35.054Z,24.90
2022-10-21T01:33:36.121Z,26.60
2022-10-21T01:36:13.247Z,22.17
2022-10-21T01:38:43.867Z,23.57
2022-10-21T01:41:17.115Z,21.70
2022-10-21T01:43:49.766Z,21.33
2022-10-21T01:46:26.046Z,24.93
2022-10-21T01:48:57.982Z,21.50
2022-10-21T01:51:28.197Z,26.83
2022-10-21T01:54:02.719Z,20.87
2022-10-21T01:56:30.443Z,20.80
2022-10-21T01:58:58.892Z,25.23
2022-10-21T02:01:27.957Z,23.17
2022-10-21T02:03:58.851Z,26.27
2022-10-21T02:06:25.694Z,22.47
2022-10-21T02:08:52.734Z,21.80
2022-10-21T02:11:19.762Z,23.13
2022-10-21T02:13:52.937Z,24.40
2022-10-21T02:16:25.082Z,21.87
2022-10-21T02:18:54.204Z,21.10
2022-10-21T02:21:25.721Z,20.43
2022-10-21T02:23:55.247Z,22.07
2022-10-21T02:26:23.265Z,26.43
2022-10-21T02:28:50.778Z,21.87
2022-10-21T02:31:34.645Z,23.00
2022-10-21T02:34:09.870Z,24.60
2022-10-21T02:36:48.021Z,21.83
2022-10-21T02:39:20.193Z,23.53
2022-10-21T02:41:49.512Z,23.17
2022-10-21T02:44:16.532Z,23.30
2022-10-21T02:46:44.907Z,28.10
2022-10-21T02:49:13.382Z,21.50
2022-10-21T02:51:40.826Z,23.83
2022-10-21T02:54:07.708Z,27.77
2022-10-21T02:56:35.323Z,23.33
2022-10-21T02:59:02.295Z,24.80
2022-10-21T03:01:29.428Z,23.67
2022-10-21T03:03:56.389Z,24.17
2022-10-21T03:06:24.565Z,24.87
2022-10-21T03:08:51.465Z,25.97
2022-10-21T03:11:18.287Z,30.00
2022-10-21T03:13:45.081Z,27.00
2022-10-21T03:16:11.888Z,32.07
2022-10-21T03:18:38.727Z,27.60
2022-10-21T03:21:05.834Z,33.53
2022-10-21T03:23:34.061Z,35.67
2022-10-21T03:26:00.982Z,41.30
2022-10-21T03:28:27.873Z,35.60
2022-10-21T03:30:55.025Z,33.37
2022-10-21T03:33:21.846Z,35.93
2022-10-21T03:35:48.645Z,36.30
2022-10-21T03:38:15.461Z,38.73
2022-10-21T03:40:43.647Z,33.60
2022-10-21T03:43:10.434Z,38.80
2022-10-21T03:45:37.222Z,34.10
2022-10-21T03:48:04.200Z,32.10
2022-10-21T03:50:30.999Z,38.63
2022-10-21T03:52:59.205Z,36.10
2022-10-21T03:55:26.497Z,36.40
2022-10-21T03:57:54.761Z,32.17
2022-10-21T04:00:22.111Z,30.37
2022-10-21T04:02:49.505Z,34.60
2022-10-21T04:05:16.645Z,35.60
2022-10-21T04:07:43.520Z,29.00
2022-10-21T04:10:11.098Z,33.03
2022-10-21T04:12:38.287Z,30.00
2022-10-21T04:15:08.223Z,31.37
2022-10-21T04:17:35.028Z,38.50
2022-10-21T04:20:01.899Z,31.13
2022-10-21T04:22:28.855Z,28.03
2022-10-21T04:24:56.475Z,35.10
2022-10-21T04:27:24.506Z,31.07
2022-10-21T04:29:51.327Z,36.87
2022-10-21T04:32:19.515Z,31.53
2022-10-21T04:34:46.298Z,32.47
2022-10-21T04:37:13.173Z,38.10
2022-10-21T04:39:40.018Z,36.37
2022-10-21T04:42:06.748Z,33.70
2022-10-21T04:44:33.538Z,36.10
2022-10-21T04:47:00.354Z,35.57
2022-10-21T04:49:28.466Z,37.13
2022-10-21T04:51:55.401Z,40.30
2022-10-21T04:54:22.202Z,38.30
2022-10-21T04:56:49.187Z,33.53
2022-10-21T04:59:15.953Z,28.97
2022-10-21T05:01:42.780Z,33.63
2022-10-21T05:04:09.563Z,33.77
2022-10-21T05:06:37.804Z,32.40
2022-10-21T05:09:04.683Z,31.97
2022-10-21T05:11:31.528Z,29.80
2022-10-21T05:13:58.366Z,31.90
2022-10-21T05:16:25.347Z,35.40
2022-10-21T05:18:52.152Z,33.90
2022-10-21T05:21:18.932Z,32.47
2022-10-21T05:23:47.074Z,27.03
2022-10-21T05:26:13.868Z,29.83
2022-10-21T05:28:40.643Z,34.13
2022-10-21T05:31:07.493Z,33.30
2022-10-21T05:33:34.323Z,35.50
2022-10-21T05:36:02.565Z,38.17
2022-10-21T05:38:29.846Z,37.63
2022-10-21T05:40:58.162Z,34.73
2022-10-21T05:43:25.723Z,31.67
2022-10-21T05:45:52.603Z,31.47
2022-10-21T05:48:19.737Z,36.33
2022-10-21T05:50:47.065Z,30.80
2022-10-21T05:53:14.737Z,33.83
2022-10-21T05:55:41.567Z,37.33
2022-10-21T05:58:09.740Z,43.50
2022-10-21T06:00:36.748Z,32.57
2022-10-21T06:03:03.584Z,36.50
2022-10-21T06:05:30.370Z,33.47
2022-10-21T06:07:57.226Z,36.37
2022-10-21T06:10:28.191Z,38.93
2022-10-21T06:12:56.059Z,33.93
2022-10-21T06:15:24.214Z,35.13
2022-10-21T06:17:51.836Z,33.70
2022-10-21T06:20:18.908Z,26.00
2022-10-21T06:22:45.687Z,33.20
2022-10-21T06:25:12.635Z,29.23
2022-10-21T06:27:39.779Z,28.13
2022-10-21T06:30:07.991Z,31.07
2022-10-21T06:32:36.191Z,29.23
2022-10-21T06:35:03.196Z,29.00
2022-10-21T06:37:29.985Z,31.20
2022-10-21T06:39:56.906Z,30.13
2022-10-21T06:42:23.624Z,31.27
2022-10-21T06:44:50.494Z,34.47
2022-10-21T06:47:17.362Z,31.60
2022-10-21T06:49:45.556Z,29.80
2022-10-21T06:52:12.379Z,33.73
2022-10-21T06:54:39.194Z,32.13
2022-10-21T06:57:05.966Z,32.00
2022-10-21T06:59:33.032Z,30.53
2022-10-21T07:02:00.922Z,25.93
2022-10-21T07:04:28.890Z,28.27
2022-10-21T07:06:57.390Z,37.07
2022-10-21T07:09:24.429Z,31.63
2022-10-21T07:11:51.317Z,31.53
2022-10-21T07:14:18.234Z,40.47
2022-10-21T07:16:45.330Z,42.87
2022-10-21T07:19:12.165Z,35.17
2022-10-21T07:21:39.093Z,32.03
2022-10-21T07:24:07.363Z,39.40
2022-10-21T07:26:34.869Z,29.67
2022-10-21T07:29:02.351Z,30.23
2022-10-21T07:31:31.903Z,39.50
2022-10-21T07:33:59.624Z,32.20
2022-10-21T07:36:29.034Z,32.30
2022-10-21T07:38:59.149Z,34.63
2022-10-21T07:41:30.068Z,34.87
2022-10-21T07:43:58.115Z,31.87
2022-10-21T07:46:25.070Z,35.67
2022-10-21T07:48:52.016Z,34.97
2022-10-21T07:51:22.385Z,36.53
2022-10-21T07:53:52.673Z,37.60
2022-10-21T07:56:22.658Z,32.97
2022-10-21T07:58:51.489Z,33.50
2022-10-21T08:01:19.894Z,32.30
2022-10-21T08:03:47.482Z,34.37
2022-10-21T08:06:17.691Z,20.83
2022-10-21T08:08:45.306Z,19.97
2022-10-21T08:11:19.888Z,19.50
2022-10-21T08:13:46.760Z,19.90
2022-10-21T08:16:14.991Z,20.73
2022-10-21T08:18:41.803Z,21.03
2022-10-21T08:21:08.653Z,22.10
2022-10-21T08:23:36.346Z,21.53
2022-10-21T08:26:03.548Z,21.40
2022-10-21T08:28:31.605Z,23.43
2022-10-21T08:31:06.602Z,22.60
2022-10-21T08:33:35.157Z,22.57
2022-10-21T08:36:05.585Z,22.90
2022-10-21T08:38:32.657Z,24.70
2022-10-21T08:41:00.866Z,23.27
2022-10-21T08:43:31.357Z,25.23
2022-10-21T08:46:02.720Z,24.17
2022-10-21T08:48:33.495Z,22.70
2022-10-21T08:51:03.820Z,24.77
2022-10-21T08:53:36.466Z,16.93
2022-10-21T08:56:07.113Z,21.20
2022-10-21T08:58:34.248Z,18.57
2022-10-21T09:01:05.085Z,20.97
2022-10-21T09:03:41.235Z,21.07
2022-10-21T09:06:21.363Z,19.80
2022-10-21T09:09:00.348Z,19.47
2022-10-21T09:11:46.784Z,21.17
2022-10-21T09:14:54.496Z,17.10
2022-10-21T09:17:28.955Z,19.97
2022-10-21T09:20:02.991Z,21.47
2022-10-21T09:22:55.194Z,21.03
2022-10-21T09:25:26.476Z,17.93
2022-10-21T09:27:56.840Z,17.00
2022-10-21T09:30:25.463Z,20.37
2022-10-21T09:32:57.407Z,15.73
2022-10-21T09:35:31.671Z,20.63
2022-10-21T09:38:05.503Z,16.13
2022-10-21T09:40:33.926Z,18.13
2022-10-21T09:43:02.529Z,14.17
2022-10-21T09:45:34.319Z,14.87
2022-10-21T09:48:04.642Z,17.63
2022-10-21T09:50:34.291Z,14.47
2022-10-21T09:53:08.052Z,18.03
2022-10-21T09:55:35.461Z,20.23
2022-10-21T09:58:04.600Z,18.90
2022-10-21T10:00:46.052Z,27.77
2022-10-21T10:03:31.454Z,16.97
2022-10-21T10:05:58.734Z,18.53
2022-10-21T10:08:32.630Z,15.20
2022-10-21T10:11:04.502Z,17.37
2022-10-21T10:13:32.273Z,14.90
2022-10-21T10:16:31.158Z,16.30
2022-10-21T10:19:14.655Z,18.67
2022-10-21T10:21:41.571Z,16.40
2022-10-21T10:24:16.807Z,15.03
2022-10-21T10:26:44.390Z,19.33
2022-10-21T10:29:26.775Z,14.37
2022-10-21T10:31:56.064Z,13.63
2022-10-21T10:34:27.165Z,12.23
2022-10-21T10:37:01.485Z,10.03
2022-10-21T10:39:32.114Z,12.60
2022-10-21T10:41:59.433Z,12.53
2022-10-21T10:44:32.310Z,9.70
2022-10-21T10:47:01.475Z,11.37
2022-10-21T10:49:36.374Z,9.67
2022-10-21T10:52:06.756Z,8.67
2022-10-21T10:54:35.675Z,11.13
2022-10-21T10:57:05.487Z,9.10
2022-10-21T10:59:38.366Z,12.23
2022-10-21T11:02:22.050Z,9.87
2022-10-21T11:05:01.150Z,12.87
2022-10-21T11:07:33.004Z,10.67
2022-10-21T11:10:07.026Z,11.87
2022-10-21T11:12:34.178Z,12.10
2022-10-21T11:15:01.487Z,11.40
2022-10-21T11:17:33.525Z,9.30
2022-10-21T11:20:08.389Z,7.33
2022-10-21T11:22:41.925Z,6.17
2022-10-21T11:25:20.512Z,8.80
2022-10-21T11:27:59.862Z,9.07
2022-10-21T11:30:39.880Z,7.03
2022-10-21T11:33:18.576Z,6.77
2022-10-21T11:35:57.756Z,6.90
2022-10-21T11:38:40.552Z,10.07
2022-10-21T11:41:22.877Z,9.33
2022-10-21T11:44:04.205Z,11.00
2022-10-21T11:46:39.417Z,8.37
2022-10-21T11:49:22.868Z,8.13
2022-10-21T11:51:59.748Z,8.47
2022-10-21T11:54:56.630Z,9.97
2022-10-21T11:57:39.489Z,11.37
2022-10-21T12:00:12.558Z,8.30
2022-10-21T12:02:44.151Z,8.60
2022-10-21T12:05:28.718Z,7.77
2022-10-21T12:08:13.111Z,8.43
2022-10-21T12:10:45.965Z,6.43
2022-10-21T12:13:20.073Z,6.73
2022-10-21T12:15:50.462Z,6.83
2022-10-21T12:18:22.073Z,7.77
2022-10-21T12:20:53.487Z,7.30
2022-10-21T12:23:22.530Z,7.80
2022-10-21T12:26:00.510Z,6.33
2022-10-21T12:28:34.210Z,8.23
2022-10-21T12:31:10.827Z,7.83
2022-10-21T12:33:40.712Z,7.07
2022-10-21T12:36:39.505Z,8.67
2022-10-21T12:39:10.262Z,7.87
2022-10-21T12:41:38.360Z,8.07
2022-10-21T12:44:24.351Z,7.57
2022-10-21T12:46:53.652Z,6.17
2022-10-21T12:49:28.241Z,8.47
2022-10-21T12:51:58.504Z,6.37
2022-10-21T12:54:30.592Z,6.20
2022-10-21T12:57:03.225Z,4.70
2022-10-21T12:59:34.574Z,3.87
2022-10-21T13:02:28.652Z,4.60
2022-10-21T13:04:57.739Z,3.33
2022-10-21T13:07:38.326Z,6.20
2022-10-21T13:10:29.415Z,4.53
2022-10-21T13:13:31.899Z,3.10
2022-10-21T13:16:22.041Z,3.50
2022-10-21T13:18:54.048Z,4.00
2022-10-21T13:21:41.041Z,3.57
2022-10-21T13:24:20.853Z,5.17
2022-10-21T13:26:50.441Z,5.77
2022-10-21T13:29:30.301Z,3.73
2022-10-21T13:32:32.451Z,5.87
2022-10-21T13:35:27.832Z,4.37
2022-10-21T13:37:59.003Z,4.90
2022-10-21T13:40:37.528Z,5.03
2022-10-21T13:43:11.366Z,6.83
2022-10-21T13:45:45.949Z,4.87
2022-10-21T13:48:17.476Z,5.07
2022-10-21T13:50:46.988Z,4.57
2022-10-21T13:53:26.685Z,4.67
2022-10-21T13:55:55.923Z,7.03
2022-10-21T13:58:23.764Z,3.73
2022-10-21T14:00:56.240Z,3.90
2022-10-21T14:03:27.904Z,3.70
2022-10-21T14:05:58.766Z,4.97
2022-10-21T14:08:28.578Z,4.83
2022-10-21T14:10:58.982Z,2.97
2022-10-21T14:13:31.674Z,4.37
2022-10-21T14:15:59.577Z,4.20
2022-10-21T14:18:33.675Z,4.73
2022-10-21T14:21:04.698Z,5.27
2022-10-21T14:23:31.812Z,7.47
2022-10-21T14:26:08.177Z,6.67
2022-10-21T14:28:37.104Z,6.07
2022-10-21T14:33:39.298Z,4.17
2022-10-21T14:36:14.906Z,5.03
2022-10-21T14:38:44.954Z,5.87
2022-10-21T14:41:19.008Z,4.60
2022-10-21T14:43:47.863Z,4.10
2022-10-21T14:46:15.385Z,4.37
2022-10-21T14:48:48.321Z,5.43
2022-10-21T14:51:21.213Z,4.50
2022-10-21T14:53:52.559Z,4.10
2022-10-21T14:56:23.162Z,6.47
2022-10-21T14:58:56.275Z,4.30
2022-10-21T15:01:23.839Z,4.10
2022-10-21T15:03:54.651Z,4.33
2022-10-21T15:06:23.255Z,5.47
2022-10-21T15:09:06.799Z,6.40
2022-10-21T15:11:42.126Z,6.40
2022-10-21T15:14:31.998Z,5.27
2022-10-21T15:17:02.373Z,5.07
2022-10-21T15:19:42.442Z,4.43
2022-10-21T15:22:23.189Z,9.23
2022-10-21T15:24:51.746Z,7.43
2022-10-21T15:27:24.803Z,3.47
2022-10-21T15:29:52.113Z,5.27
2022-10-21T15:32:22.222Z,9.93
2022-10-21T15:34:53.237Z,7.20
2022-10-21T15:37:20.359Z,4.13
2022-10-21T15:39:48.548Z,7.87
2022-10-21T15:42:22.450Z,4.97
2022-10-21T15:44:50.387Z,7.57
2022-10-21T15:47:17.468Z,6.53
2022-10-21T15:49:46.429Z,9.33
2022-10-21T15:52:14.813Z,3.70
2022-10-21T15:54:42.214Z,7.70
2022-10-21T15:57:16.769Z,3.90
2022-10-21T15:59:43.691Z,3.93
2022-10-21T16:02:15.556Z,8.53
2022-10-21T16:04:44.563Z,6.57
2022-10-21T16:07:25.164Z,4.13
2022-10-21T16:09:52.350Z,6.93
2022-10-21T16:12:22.302Z,6.73
2022-10-21T16:14:49.213Z,9.00
2022-10-21T16:17:16.315Z,7.67
2022-10-21T16:19:43.286Z,4.47
2022-10-21T16:22:14.406Z,9.73
2022-10-21T16:24:42.631Z,7.17
2022-10-21T16:27:11.388Z,6.87
2022-10-21T16:29:38.279Z,7.17
2022-10-21T16:32:05.704Z,5.27
2022-10-21T16:34:32.770Z,6.73
2022-10-21T16:37:00.422Z,5.17
2022-10-21T16:39:27.515Z,7.50
2022-10-21T16:41:55.723Z,5.43
2022-10-21T16:44:22.541Z,8.27
2022-10-21T16:46:52.057Z,5.13
2022-10-21T16:49:22.548Z,9.47
2022-10-21T16:51:49.982Z,7.97
2022-10-21T16:54:18.243Z,8.20
2022-10-21T16:56:45.292Z,4.43
2022-10-21T16:59:13.492Z,5.53
2022-10-21T17:01:40.509Z,9.33
2022-10-21T17:04:07.697Z,6.13
2022-10-21T17:06:34.689Z,5.47
2022-10-21T17:09:01.653Z,8.83
2022-10-21T17:11:33.166Z,6.97
2022-10-21T17:14:00.531Z,8.43
2022-10-21T17:16:29.675Z,13.17
2022-10-21T17:18:56.581Z,9.10
2022-10-21T17:21:25.856Z,5.33
2022-10-21T17:23:54.217Z,7.70
2022-10-21T17:26:21.473Z,8.57
2022-10-21T17:28:48.752Z,8.67
2022-10-21T17:31:16.887Z,9.43
2022-10-21T17:33:45.852Z,9.27
2022-10-21T17:36:13.083Z,5.17
2022-10-21T17:38:41.758Z,7.13
2022-10-21T17:41:08.876Z,4.83
2022-10-21T17:43:35.940Z,5.97
2022-10-21T17:46:02.772Z,8.80
2022-10-21T17:48:29.789Z,14.57
2022-10-21T17:51:02.088Z,10.77
2022-10-21T17:53:30.040Z,9.77
2022-10-21T17:55:58.194Z,11.63
2022-10-21T17:58:25.570Z,7.97
2022-10-21T18:00:52.709Z,10.73
2022-10-21T18:03:19.712Z,12.80
2022-10-21T18:05:47.309Z,8.23
2022-10-21T18:08:15.566Z,10.70
2022-10-21T18:10:42.446Z,7.83
2022-10-21T18:13:09.568Z,8.57
2022-10-21T18:15:37.825Z,9.57
2022-10-21T18:18:04.870Z,8.13
2022-10-21T18:20:35.471Z,12.40
2022-10-21T18:23:02.327Z,10.10
2022-10-21T18:25:30.636Z,10.33
2022-10-21T18:27:57.491Z,7.53
2022-10-21T18:30:24.422Z,7.53
2022-10-21T18:32:51.293Z,7.33
2022-10-21T18:35:18.299Z,8.83
2022-10-21T18:37:45.311Z,8.83
2022-10-21T18:40:12.361Z,8.43
2022-10-21T18:42:40.539Z,8.40
2022-10-21T18:45:08.186Z,7.07
2022-10-21T18:47:35.007Z,5.53
2022-10-21T18:50:01.872Z,8.43
2022-10-21T18:52:28.779Z,6.63
2022-10-21T18:54:55.675Z,5.27
2022-10-21T18:57:22.490Z,4.47
2022-10-21T18:59:50.723Z,9.10
2022-10-21T19:02:22.062Z,6.70
2022-10-21T19:04:49.013Z,10.47
2022-10-21T19:07:16.437Z,10.23
2022-10-21T19:09:43.472Z,6.40
2022-10-21T19:12:12.018Z,10.03
2022-10-21T19:14:41.361Z,10.23
2022-10-21T19:17:10.206Z,8.97
2022-10-21T19:19:39.522Z,8.50
2022-10-21T19:22:06.527Z,7.47
2022-10-21T19:24:33.415Z,8.37
2022-10-21T19:27:00.419Z,7.30
2022-10-21T19:29:27.619Z,10.10
2022-10-21T19:31:56.585Z,7.20
2022-10-21T19:34:28.531Z,9.87
2022-10-21T19:36:55.812Z,9.27
2022-10-21T19:39:22.665Z,7.20
2022-10-21T19:41:49.618Z,9.17
2022-10-21T19:44:17.350Z,14.23
2022-10-21T19:46:44.757Z,8.63
2022-10-21T19:49:13.082Z,12.53
2022-10-21T19:51:41.346Z,8.97
2022-10-21T19:54:10.396Z,6.37
2022-10-21T19:56:37.261Z,6.87
2022-10-21T19:59:05.600Z,8.20
2022-10-21T20:01:33.485Z,8.73
2022-10-21T20:04:01.880Z,6.57
2022-10-21T20:06:30.574Z,8.63
2022-10-21T20:09:01.057Z,7.60
2022-10-21T20:11:29.303Z,6.30
2022-10-21T20:13:56.833Z,11.00
2022-10-21T20:16:26.526Z,6.97
2022-10-21T20:18:53.815Z,6.60
2022-10-21T20:21:21.067Z,8.97
2022-10-21T20:23:47.948Z,9.80
2022-10-21T20:26:16.268Z,6.40
2022-10-21T20:28:43.232Z,11.70
2022-10-21T20:31:12.191Z,9.67
2022-10-21T20:33:41.242Z,8.10
2022-10-21T20:36:11.394Z,11.60
2022-10-21T20:38:38.541Z,11.13
2022-10-21T20:41:07.278Z,7.73
2022-10-21T20:43:37.006Z,5.97
2022-10-21T20:46:05.384Z,10.97
2022-10-21T20:48:32.990Z,10.83
2022-10-21T20:51:03.757Z,8.93
2022-10-21T20:53:31.879Z,9.77
2022-10-21T20:55:59.577Z,8.43
2022-10-21T20:58:26.994Z,7.87
2022-10-21T21:00:55.498Z,8.57
2022-10-21T21:03:22.852Z,6.60
2022-10-21T21:05:49.668Z,12.70
2022-10-21T21:08:16.599Z,9.73
2022-10-21T21:10:43.427Z,7.50
2022-10-21T21:13:10.363Z,6.33
2022-10-21T21:15:37.200Z,7.50
2022-10-21T21:18:11.396Z,8.63
2022-10-21T21:20:38.275Z,8.87
2022-10-21T21:23:05.119Z,7.97
2022-10-21T21:25:31.993Z,14.30
2022-10-21T21:27:58.877Z,8.67
2022-10-21T21:30:25.677Z,11.20
2022-10-21T21:32:52.502Z,7.50
2022-10-21T21:35:20.714Z,8.33
2022-10-21T21:37:47.528Z,17.93
2022-10-21T21:40:14.400Z,9.33
2022-10-21T21:42:41.421Z,11.07
2022-10-21T21:45:09.737Z,13.67
2022-10-21T21:47:36.578Z,10.77
2022-10-21T21:50:03.732Z,9.57
2022-10-21T21:52:32.209Z,8.23
2022-10-21T21:54:59.066Z,9.60
2022-10-21T21:57:28.028Z,9.43
2022-10-21T21:59:55.267Z,9.67
2022-10-21T22:02:22.087Z,7.40
2022-10-21T22:04:48.937Z,9.57
2022-10-21T22:07:15.825Z,8.40
2022-10-21T22:09:44.055Z,10.63
2022-10-21T22:12:14.387Z,9.77
2022-10-21T22:14:41.867Z,11.33
2022-10-21T22:17:08.774Z,8.37
2022-10-21T22:19:35.772Z,8.83
2022-10-21T22:22:02.666Z,7.80
2022-10-21T22:24:31.676Z,9.27
2022-10-21T22:26:59.980Z,11.70
2022-10-21T22:29:26.846Z,9.20
2022-10-21T22:31:53.717Z,9.07
2022-10-21T22:34:20.487Z,10.20
2022-10-21T22:36:47.296Z,10.40
2022-10-21T22:39:14.172Z,9.20
2022-10-21T22:41:40.967Z,8.33
2022-10-21T22:44:10.362Z,6.37
2022-10-21T22:46:37.520Z,7.40
2022-10-21T22:49:05.113Z,10.70
2022-10-21T22:51:32.260Z,6.23
2022-10-21T22:53:59.138Z,7.23
2022-10-21T22:56:27.822Z,8.47
2022-10-21T22:58:54.863Z,7.53
2022-10-21T23:01:24.108Z,6.00
2022-10-21T23:03:51.977Z,4.97
2022-10-21T23:06:18.750Z,9.33
2022-10-21T23:08:45.653Z,6.40
2022-10-21T23:11:12.487Z,8.13
2022-10-21T23:13:51.031Z,10.77
2022-10-21T23:16:27.426Z,5.07
2022-10-21T23:18:54.242Z,6.73
2022-10-21T23:21:21.415Z,7.63
2022-10-21T23:23:48.225Z,10.23
2022-10-21T23:26:14.994Z,8.90
2022-10-21T23:28:41.770Z,4.93
2022-10-21T23:31:08.661Z,11.60
2022-10-21T23:33:36.862Z,24.37
2022-10-21T23:36:04.030Z,8.40
2022-10-21T23:38:30.821Z,7.57
2022-10-21T23:40:57.777Z,8.07
2022-10-21T23:43:24.612Z,11.17
2022-10-21T23:45:51.453Z,8.40
2022-10-21T23:48:18.270Z,7.30
2022-10-21T23:50:46.402Z,7.10
2022-10-21T23:53:13.415Z,10.30
2022-10-21T23:55:40.286Z,7.53
2022-10-21T23:58:07.625Z,8.40
